sensor_id;sensor_type;location;lat;lon;timestamp;P1;durP1;ratioP1;P2;durP2;ratioP2
16642;SDS011;8435;52.184;5.406;2024-01-30T00:01:52;11.90;;;10.67;;
16642;SDS011;8435;52.184;5.406;2024-01-30T00:04:19;11.33;;;9.67;;
16642;SDS011;8435;52.184;5.406;2024-01-30T00:06:46;11.00;;;9.90;;
16642;SDS011;8435;52.184;5.406;2024-01-30T00:09:14;11.73;;;10.43;;
16642;SDS011;8435;52.184;5.406;2024-01-30T00:11:41;10.63;;;9.53;;
16642;SDS011;8435;52.184;5.406;2024-01-30T00:14:07;11.53;;;10.33;;
16642;SDS011;8435;52.184;5.406;2024-01-30T00:16:34;11.77;;;10.57;;
16642;SDS011;8435;52.184;5.406;2024-01-30T00:19:01;10.63;;;9.53;;
16642;SDS011;8435;52.184;5.406;2024-01-30T00:21:28;12.87;;;10.47;;
16642;SDS011;8435;52.184;5.406;2024-01-30T00:23:55;12.13;;;10.93;;
16642;SDS011;8435;52.184;5.406;2024-01-30T00:26:25;11.00;;;9.63;;
16642;SDS011;8435;52.184;5.406;2024-01-30T00:28:52;11.80;;;10.27;;
16642;SDS011;8435;52.184;5.406;2024-01-30T00:31:19;11.80;;;10.60;;
16642;SDS011;8435;52.184;5.406;2024-01-30T00:33:46;12.77;;;10.67;;
16642;SDS011;8435;52.184;5.406;2024-01-30T00:36:13;12.07;;;10.43;;
16642;SDS011;8435;52.184;5.406;2024-01-30T00:38:39;11.30;;;10.20;;
16642;SDS011;8435;52.184;5.406;2024-01-30T00:41:07;13.30;;;10.10;;
16642;SDS011;8435;52.184;5.406;2024-01-30T00:43:35;12.13;;;9.93;;
16642;SDS011;8435;52.184;5.406;2024-01-30T00:46:03;12.57;;;11.30;;
16642;SDS011;8435;52.184;5.406;2024-01-30T00:48:29;12.07;;;10.97;;
16642;SDS011;8435;52.184;5.406;2024-01-30T00:50:56;12.97;;;11.67;;
16642;SDS011;8435;52.184;5.406;2024-01-30T00:53:23;12.77;;;11.23;;
16642;SDS011;8435;52.184;5.406;2024-01-30T00:55:53;12.27;;;11.07;;
16642;SDS011;8435;52.184;5.406;2024-01-30T00:58:19;12.60;;;11.30;;
16642;SDS011;8435;52.184;5.406;2024-01-30T01:00:50;13.13;;;11.27;;
16642;SDS011;8435;52.184;5.406;2024-01-30T01:03:19;11.90;;;10.70;;
16642;SDS011;8435;52.184;5.406;2024-01-30T01:05:48;12.73;;;11.03;;
16642;SDS011;8435;52.184;5.406;2024-01-30T01:08:15;11.67;;;10.47;;
16642;SDS011;8435;52.184;5.406;2024-01-30T01:10:43;12.43;;;11.23;;
16642;SDS011;8435;52.184;5.406;2024-01-30T01:13:09;11.77;;;10.60;;
16642;SDS011;8435;52.184;5.406;2024-01-30T01:15:36;12.70;;;11.40;;
16642;SDS011;8435;52.184;5.406;2024-01-30T01:18:04;13.57;;;12.03;;
16642;SDS011;8435;52.184;5.406;2024-01-30T01:20:31;12.30;;;11.20;;
16642;SDS011;8435;52.184;5.406;2024-01-30T01:22:58;12.07;;;10.87;;
16642;SDS011;8435;52.184;5.406;2024-01-30T01:25:25;12.10;;;10.60;;
16642;SDS011;8435;52.184;5.406;2024-01-30T01:27:51;12.20;;;11.00;;
16642;SDS011;8435;52.184;5.406;2024-01-30T01:30:18;12.50;;;11.20;;
16642;SDS011;8435;52.184;5.406;2024-01-30T01:32:46;11.80;;;10.57;;
16642;SDS011;8435;52.184;5.406;2024-01-30T01:35:21;12.13;;;10.70;;
16642;SDS011;8435;52.184;5.406;2024-01-30T01:37:49;11.23;;;10.03;;
16642;SDS011;8435;52.184;5.406;2024-01-30T01:40:19;12.33;;;11.03;;
16642;SDS011;8435;52.184;5.406;2024-01-30T01:42:50;11.13;;;10.03;;
16642;SDS011;8435;52.184;5.406;2024-01-30T01:45:17;11.37;;;9.90;;
16642;SDS011;8435;52.184;5.406;2024-01-30T01:47:45;10.53;;;9.50;;
16642;SDS011;8435;52.184;5.406;2024-01-30T01:50:15;11.47;;;10.33;;
16642;SDS011;8435;52.184;5.406;2024-01-30T01:52:45;10.70;;;9.70;;
16642;SDS011;8435;52.184;5.406;2024-01-30T01:55:17;12.00;;;9.70;;
16642;SDS011;8435;52.184;5.406;2024-01-30T01:57:47;11.13;;;9.97;;
16642;SDS011;8435;52.184;5.406;2024-01-30T02:00:16;10.80;;;9.70;;
16642;SDS011;8435;52.184;5.406;2024-01-30T02:02:44;13.30;;;11.07;;
16642;SDS011;8435;52.184;5.406;2024-01-30T02:05:14;10.70;;;9.60;;
16642;SDS011;8435;52.184;5.406;2024-01-30T02:07:41;10.90;;;9.83;;
16642;SDS011;8435;52.184;5.406;2024-01-30T02:10:10;10.60;;;9.47;;
16642;SDS011;8435;52.184;5.406;2024-01-30T02:12:40;12.70;;;10.17;;
16642;SDS011;8435;52.184;5.406;2024-01-30T02:15:07;11.23;;;10.10;;
16642;SDS011;8435;52.184;5.406;2024-01-30T02:17:35;10.63;;;9.60;;
16642;SDS011;8435;52.184;5.406;2024-01-30T02:20:02;10.33;;;9.30;;
16642;SDS011;8435;52.184;5.406;2024-01-30T02:22:31;10.20;;;9.13;;
16642;SDS011;8435;52.184;5.406;2024-01-30T02:25:00;10.80;;;9.70;;
16642;SDS011;8435;52.184;5.406;2024-01-30T02:27:26;10.40;;;9.40;;
16642;SDS011;8435;52.184;5.406;2024-01-30T02:29:53;10.63;;;9.53;;
16642;SDS011;8435;52.184;5.406;2024-01-30T02:32:20;10.07;;;9.10;;
16642;SDS011;8435;52.184;5.406;2024-01-30T02:34:47;10.27;;;8.93;;
16642;SDS011;8435;52.184;5.406;2024-01-30T02:37:13;10.70;;;9.27;;
16642;SDS011;8435;52.184;5.406;2024-01-30T02:39:42;10.83;;;9.83;;
16642;SDS011;8435;52.184;5.406;2024-01-30T02:42:08;10.73;;;9.70;;
16642;SDS011;8435;52.184;5.406;2024-01-30T02:44:35;9.57;;;8.53;;
16642;SDS011;8435;52.184;5.406;2024-01-30T02:47:02;10.27;;;9.17;;
16642;SDS011;8435;52.184;5.406;2024-01-30T02:49:29;10.03;;;9.10;;
16642;SDS011;8435;52.184;5.406;2024-01-30T02:51:55;10.80;;;9.70;;
16642;SDS011;8435;52.184;5.406;2024-01-30T02:54:22;10.50;;;9.43;;
16642;SDS011;8435;52.184;5.406;2024-01-30T02:56:50;10.37;;;9.30;;
16642;SDS011;8435;52.184;5.406;2024-01-30T02:59:17;10.17;;;9.17;;
16642;SDS011;8435;52.184;5.406;2024-01-30T03:01:44;12.83;;;9.50;;
16642;SDS011;8435;52.184;5.406;2024-01-30T03:04:11;10.37;;;9.33;;
16642;SDS011;8435;52.184;5.406;2024-01-30T03:06:38;11.17;;;10.00;;
16642;SDS011;8435;52.184;5.406;2024-01-30T03:09:05;12.87;;;10.23;;
16642;SDS011;8435;52.184;5.406;2024-01-30T03:11:31;12.17;;;10.83;;
16642;SDS011;8435;52.184;5.406;2024-01-30T03:14:01;12.33;;;11.20;;
16642;SDS011;8435;52.184;5.406;2024-01-30T03:16:29;13.00;;;11.60;;
16642;SDS011;8435;52.184;5.406;2024-01-30T03:18:56;15.97;;;12.40;;
16642;SDS011;8435;52.184;5.406;2024-01-30T03:21:22;15.10;;;13.17;;
16642;SDS011;8435;52.184;5.406;2024-01-30T03:23:49;14.90;;;13.40;;
16642;SDS011;8435;52.184;5.406;2024-01-30T03:26:16;13.23;;;11.83;;
16642;SDS011;8435;52.184;5.406;2024-01-30T03:28:43;14.63;;;12.33;;
16642;SDS011;8435;52.184;5.406;2024-01-30T03:31:13;13.30;;;11.90;;
16642;SDS011;8435;52.184;5.406;2024-01-30T03:33:40;14.63;;;12.60;;
16642;SDS011;8435;52.184;5.406;2024-01-30T03:36:07;13.97;;;12.57;;
16642;SDS011;8435;52.184;5.406;2024-01-30T03:38:34;13.40;;;11.93;;
16642;SDS011;8435;52.184;5.406;2024-01-30T03:41:01;13.13;;;11.63;;
16642;SDS011;8435;52.184;5.406;2024-01-30T03:43:28;13.10;;;11.90;;
16642;SDS011;8435;52.184;5.406;2024-01-30T03:45:55;12.87;;;11.47;;
16642;SDS011;8435;52.184;5.406;2024-01-30T03:48:23;12.67;;;11.37;;
16642;SDS011;8435;52.184;5.406;2024-01-30T03:50:50;12.20;;;10.63;;
16642;SDS011;8435;52.184;5.406;2024-01-30T03:53:17;12.10;;;10.80;;
16642;SDS011;8435;52.184;5.406;2024-01-30T03:55:44;12.07;;;10.87;;
16642;SDS011;8435;52.184;5.406;2024-01-30T03:58:11;11.00;;;9.93;;
16642;SDS011;8435;52.184;5.406;2024-01-30T04:00:37;11.57;;;10.37;;
16642;SDS011;8435;52.184;5.406;2024-01-30T04:03:06;11.27;;;10.13;;
16642;SDS011;8435;52.184;5.406;2024-01-30T04:05:34;13.47;;;10.63;;
16642;SDS011;8435;52.184;5.406;2024-01-30T04:08:01;11.20;;;9.77;;
16642;SDS011;8435;52.184;5.406;2024-01-30T04:10:30;10.83;;;9.80;;
16642;SDS011;8435;52.184;5.406;2024-01-30T04:12:57;10.90;;;9.80;;
16642;SDS011;8435;52.184;5.406;2024-01-30T04:15:24;10.43;;;9.33;;
16642;SDS011;8435;52.184;5.406;2024-01-30T04:17:51;10.67;;;9.37;;
16642;SDS011;8435;52.184;5.406;2024-01-30T04:20:18;8.70;;;7.90;;
16642;SDS011;8435;52.184;5.406;2024-01-30T04:22:46;9.63;;;8.63;;
16642;SDS011;8435;52.184;5.406;2024-01-30T04:25:13;9.13;;;8.13;;
16642;SDS011;8435;52.184;5.406;2024-01-30T04:27:40;8.67;;;7.87;;
16642;SDS011;8435;52.184;5.406;2024-01-30T04:30:07;8.17;;;7.37;;
16642;SDS011;8435;52.184;5.406;2024-01-30T04:32:35;9.93;;;8.27;;
16642;SDS011;8435;52.184;5.406;2024-01-30T04:35:03;8.93;;;7.73;;
16642;SDS011;8435;52.184;5.406;2024-01-30T04:37:30;8.50;;;7.70;;
16642;SDS011;8435;52.184;5.406;2024-01-30T04:39:58;9.00;;;8.10;;
16642;SDS011;8435;52.184;5.406;2024-01-30T04:42:25;9.63;;;8.60;;
16642;SDS011;8435;52.184;5.406;2024-01-30T04:44:52;8.87;;;7.90;;
16642;SDS011;8435;52.184;5.406;2024-01-30T04:47:19;9.50;;;7.60;;
16642;SDS011;8435;52.184;5.406;2024-01-30T04:49:46;8.57;;;7.67;;
16642;SDS011;8435;52.184;5.406;2024-01-30T04:52:13;9.63;;;7.47;;
16642;SDS011;8435;52.184;5.406;2024-01-30T04:54:41;7.97;;;7.17;;
16642;SDS011;8435;52.184;5.406;2024-01-30T04:57:09;8.17;;;7.03;;
16642;SDS011;8435;52.184;5.406;2024-01-30T04:59:37;8.10;;;7.23;;
16642;SDS011;8435;52.184;5.406;2024-01-30T05:02:04;8.30;;;7.50;;
16642;SDS011;8435;52.184;5.406;2024-01-30T05:04:31;8.23;;;7.43;;
16642;SDS011;8435;52.184;5.406;2024-01-30T05:07:00;7.60;;;6.83;;
16642;SDS011;8435;52.184;5.406;2024-01-30T05:09:27;8.63;;;7.73;;
16642;SDS011;8435;52.184;5.406;2024-01-30T05:11:56;8.73;;;7.60;;
16642;SDS011;8435;52.184;5.406;2024-01-30T05:14:25;8.80;;;7.53;;
16642;SDS011;8435;52.184;5.406;2024-01-30T05:16:51;7.43;;;6.77;;
16642;SDS011;8435;52.184;5.406;2024-01-30T05:19:18;8.17;;;7.33;;
16642;SDS011;8435;52.184;5.406;2024-01-30T05:21:46;8.37;;;7.57;;
16642;SDS011;8435;52.184;5.406;2024-01-30T05:24:13;7.77;;;6.90;;
16642;SDS011;8435;52.184;5.406;2024-01-30T05:26:41;8.03;;;7.23;;
16642;SDS011;8435;52.184;5.406;2024-01-30T05:29:08;9.70;;;8.07;;
16642;SDS011;8435;52.184;5.406;2024-01-30T05:31:36;8.67;;;7.80;;
16642;SDS011;8435;52.184;5.406;2024-01-30T05:34:03;8.23;;;7.43;;
16642;SDS011;8435;52.184;5.406;2024-01-30T05:36:31;9.53;;;7.47;;
16642;SDS011;8435;52.184;5.406;2024-01-30T05:39:00;7.47;;;6.80;;
16642;SDS011;8435;52.184;5.406;2024-01-30T05:41:27;7.50;;;6.80;;
16642;SDS011;8435;52.184;5.406;2024-01-30T05:43:54;8.17;;;7.30;;
16642;SDS011;8435;52.184;5.406;2024-01-30T05:46:21;9.47;;;7.57;;
16642;SDS011;8435;52.184;5.406;2024-01-30T05:48:49;11.03;;;7.43;;
16642;SDS011;8435;52.184;5.406;2024-01-30T05:51:16;8.33;;;7.53;;
16642;SDS011;8435;52.184;5.406;2024-01-30T05:53:43;8.60;;;7.80;;
16642;SDS011;8435;52.184;5.406;2024-01-30T05:56:09;8.57;;;7.17;;
16642;SDS011;8435;52.184;5.406;2024-01-30T05:58:36;8.43;;;7.50;;
16642;SDS011;8435;52.184;5.406;2024-01-30T06:01:04;9.10;;;7.73;;
16642;SDS011;8435;52.184;5.406;2024-01-30T06:03:33;8.90;;;7.60;;
16642;SDS011;8435;52.184;5.406;2024-01-30T06:06:01;9.70;;;7.77;;
16642;SDS011;8435;52.184;5.406;2024-01-30T06:08:29;9.07;;;7.73;;
16642;SDS011;8435;52.184;5.406;2024-01-30T06:10:59;9.57;;;6.83;;
16642;SDS011;8435;52.184;5.406;2024-01-30T06:13:26;8.17;;;7.37;;
16642;SDS011;8435;52.184;5.406;2024-01-30T06:15:55;10.53;;;7.40;;
16642;SDS011;8435;52.184;5.406;2024-01-30T06:18:22;9.27;;;7.70;;
16642;SDS011;8435;52.184;5.406;2024-01-30T06:20:49;8.23;;;7.43;;
16642;SDS011;8435;52.184;5.406;2024-01-30T06:23:17;7.13;;;6.47;;
16642;SDS011;8435;52.184;5.406;2024-01-30T06:25:44;7.43;;;6.60;;
16642;SDS011;8435;52.184;5.406;2024-01-30T06:28:10;8.50;;;7.23;;
16642;SDS011;8435;52.184;5.406;2024-01-30T06:30:37;8.33;;;6.73;;
16642;SDS011;8435;52.184;5.406;2024-01-30T06:33:04;7.03;;;6.40;;
16642;SDS011;8435;52.184;5.406;2024-01-30T06:35:30;10.70;;;7.30;;
16642;SDS011;8435;52.184;5.406;2024-01-30T06:37:57;8.03;;;7.10;;
16642;SDS011;8435;52.184;5.406;2024-01-30T06:40:25;8.43;;;7.17;;
16642;SDS011;8435;52.184;5.406;2024-01-30T06:42:52;7.70;;;6.90;;
16642;SDS011;8435;52.184;5.406;2024-01-30T06:45:19;8.63;;;7.27;;
16642;SDS011;8435;52.184;5.406;2024-01-30T06:47:46;9.17;;;7.83;;
16642;SDS011;8435;52.184;5.406;2024-01-30T06:50:12;7.87;;;7.07;;
16642;SDS011;8435;52.184;5.406;2024-01-30T06:52:39;16.03;;;14.40;;
16642;SDS011;8435;52.184;5.406;2024-01-30T06:55:06;13.63;;;10.03;;
16642;SDS011;8435;52.184;5.406;2024-01-30T06:57:35;9.00;;;8.10;;
16642;SDS011;8435;52.184;5.406;2024-01-30T07:00:02;8.90;;;8.10;;
16642;SDS011;8435;52.184;5.406;2024-01-30T07:02:29;9.67;;;7.93;;
16642;SDS011;8435;52.184;5.406;2024-01-30T07:04:56;7.40;;;6.63;;
16642;SDS011;8435;52.184;5.406;2024-01-30T07:07:23;8.37;;;7.57;;
16642;SDS011;8435;52.184;5.406;2024-01-30T07:09:49;7.27;;;6.53;;
16642;SDS011;8435;52.184;5.406;2024-01-30T07:12:21;7.70;;;6.93;;
16642;SDS011;8435;52.184;5.406;2024-01-30T07:14:50;7.20;;;6.50;;
16642;SDS011;8435;52.184;5.406;2024-01-30T07:17:17;7.87;;;6.93;;
16642;SDS011;8435;52.184;5.406;2024-01-30T07:19:44;9.03;;;7.00;;
16642;SDS011;8435;52.184;5.406;2024-01-30T07:22:11;8.13;;;7.30;;
16642;SDS011;8435;52.184;5.406;2024-01-30T07:24:41;8.27;;;7.43;;
16642;SDS011;8435;52.184;5.406;2024-01-30T07:27:14;9.57;;;7.00;;
16642;SDS011;8435;52.184;5.406;2024-01-30T07:29:42;8.00;;;7.10;;
16642;SDS011;8435;52.184;5.406;2024-01-30T07:32:10;7.60;;;6.90;;
16642;SDS011;8435;52.184;5.406;2024-01-30T07:34:37;7.63;;;6.93;;
16642;SDS011;8435;52.184;5.406;2024-01-30T07:37:04;7.57;;;6.80;;
16642;SDS011;8435;52.184;5.406;2024-01-30T07:39:33;8.67;;;7.27;;
16642;SDS011;8435;52.184;5.406;2024-01-30T07:42:02;7.30;;;6.53;;
16642;SDS011;8435;52.184;5.406;2024-01-30T07:44:29;7.00;;;6.40;;
16642;SDS011;8435;52.184;5.406;2024-01-30T07:46:55;7.87;;;7.00;;
16642;SDS011;8435;52.184;5.406;2024-01-30T07:49:23;7.97;;;7.17;;
16642;SDS011;8435;52.184;5.406;2024-01-30T07:51:50;8.23;;;7.23;;
16642;SDS011;8435;52.184;5.406;2024-01-30T07:54:17;7.90;;;6.67;;
16642;SDS011;8435;52.184;5.406;2024-01-30T07:56:44;9.50;;;6.40;;
16642;SDS011;8435;52.184;5.406;2024-01-30T07:59:11;14.07;;;8.20;;
16642;SDS011;8435;52.184;5.406;2024-01-30T08:01:38;8.03;;;6.97;;
16642;SDS011;8435;52.184;5.406;2024-01-30T08:04:08;7.80;;;7.07;;
16642;SDS011;8435;52.184;5.406;2024-01-30T08:06:36;7.90;;;7.10;;
16642;SDS011;8435;52.184;5.406;2024-01-30T08:09:03;8.93;;;7.40;;
16642;SDS011;8435;52.184;5.406;2024-01-30T08:11:29;7.97;;;7.27;;
16642;SDS011;8435;52.184;5.406;2024-01-30T08:13:56;8.20;;;7.27;;
16642;SDS011;8435;52.184;5.406;2024-01-30T08:16:23;11.23;;;7.53;;
16642;SDS011;8435;52.184;5.406;2024-01-30T08:18:52;7.87;;;6.80;;
16642;SDS011;8435;52.184;5.406;2024-01-30T08:21:22;9.47;;;7.23;;
16642;SDS011;8435;52.184;5.406;2024-01-30T08:23:50;7.93;;;6.97;;
16642;SDS011;8435;52.184;5.406;2024-01-30T08:26:17;7.33;;;6.40;;
16642;SDS011;8435;52.184;5.406;2024-01-30T08:28:44;9.27;;;7.13;;
16642;SDS011;8435;52.184;5.406;2024-01-30T08:31:10;7.77;;;6.87;;
16642;SDS011;8435;52.184;5.406;2024-01-30T08:33:38;8.17;;;6.47;;
16642;SDS011;8435;52.184;5.406;2024-01-30T08:36:05;9.40;;;6.77;;
16642;SDS011;8435;52.184;5.406;2024-01-30T08:38:34;9.37;;;6.70;;
16642;SDS011;8435;52.184;5.406;2024-01-30T08:41:03;9.73;;;6.47;;
16642;SDS011;8435;52.184;5.406;2024-01-30T08:43:32;7.40;;;6.33;;
16642;SDS011;8435;52.184;5.406;2024-01-30T08:45:59;10.30;;;7.10;;
16642;SDS011;8435;52.184;5.406;2024-01-30T08:48:26;7.53;;;6.70;;
16642;SDS011;8435;52.184;5.406;2024-01-30T08:50:53;8.60;;;7.27;;
16642;SDS011;8435;52.184;5.406;2024-01-30T08:53:20;8.63;;;6.90;;
16642;SDS011;8435;52.184;5.406;2024-01-30T08:55:47;8.47;;;6.90;;
16642;SDS011;8435;52.184;5.406;2024-01-30T08:58:15;8.37;;;6.97;;
16642;SDS011;8435;52.184;5.406;2024-01-30T09:00:43;9.23;;;7.20;;
16642;SDS011;8435;52.184;5.406;2024-01-30T09:03:10;10.60;;;6.80;;
16642;SDS011;8435;52.184;5.406;2024-01-30T09:05:36;9.63;;;7.27;;
16642;SDS011;8435;52.184;5.406;2024-01-30T09:08:03;7.90;;;7.10;;
16642;SDS011;8435;52.184;5.406;2024-01-30T09:10:30;9.27;;;7.20;;
16642;SDS011;8435;52.184;5.406;2024-01-30T09:12:57;12.03;;;7.47;;
16642;SDS011;8435;52.184;5.406;2024-01-30T09:15:25;8.47;;;7.13;;
16642;SDS011;8435;52.184;5.406;2024-01-30T09:17:52;9.80;;;7.07;;
16642;SDS011;8435;52.184;5.406;2024-01-30T09:20:19;8.23;;;6.90;;
16642;SDS011;8435;52.184;5.406;2024-01-30T09:22:47;9.73;;;7.40;;
16642;SDS011;8435;52.184;5.406;2024-01-30T09:25:14;9.93;;;7.30;;
16642;SDS011;8435;52.184;5.406;2024-01-30T09:27:41;8.10;;;6.67;;
16642;SDS011;8435;52.184;5.406;2024-01-30T09:30:08;9.27;;;7.07;;
16642;SDS011;8435;52.184;5.406;2024-01-30T09:32:36;8.03;;;7.17;;
16642;SDS011;8435;52.184;5.406;2024-01-30T09:35:03;9.10;;;7.00;;
16642;SDS011;8435;52.184;5.406;2024-01-30T09:37:31;9.23;;;6.53;;
16642;SDS011;8435;52.184;5.406;2024-01-30T09:39:58;9.17;;;7.03;;
16642;SDS011;8435;52.184;5.406;2024-01-30T09:42:26;10.83;;;7.40;;
16642;SDS011;8435;52.184;5.406;2024-01-30T09:45:00;8.57;;;6.97;;
16642;SDS011;8435;52.184;5.406;2024-01-30T09:47:28;10.27;;;7.57;;
16642;SDS011;8435;52.184;5.406;2024-01-30T09:49:58;11.53;;;7.87;;
16642;SDS011;8435;52.184;5.406;2024-01-30T09:52:27;9.13;;;6.70;;
16642;SDS011;8435;52.184;5.406;2024-01-30T09:54:54;8.10;;;6.80;;
16642;SDS011;8435;52.184;5.406;2024-01-30T09:57:21;10.00;;;7.40;;
16642;SDS011;8435;52.184;5.406;2024-01-30T09:59:48;8.70;;;7.13;;
16642;SDS011;8435;52.184;5.406;2024-01-30T10:02:17;9.23;;;7.50;;
16642;SDS011;8435;52.184;5.406;2024-01-30T10:04:47;9.13;;;6.90;;
16642;SDS011;8435;52.184;5.406;2024-01-30T10:07:19;8.80;;;6.67;;
16642;SDS011;8435;52.184;5.406;2024-01-30T10:09:46;8.63;;;7.60;;
16642;SDS011;8435;52.184;5.406;2024-01-30T10:12:14;7.97;;;7.10;;
16642;SDS011;8435;52.184;5.406;2024-01-30T10:14:41;9.40;;;7.10;;
16642;SDS011;8435;52.184;5.406;2024-01-30T10:17:09;9.60;;;6.73;;
16642;SDS011;8435;52.184;5.406;2024-01-30T10:19:37;9.13;;;7.10;;
16642;SDS011;8435;52.184;5.406;2024-01-30T10:22:04;8.83;;;7.50;;
16642;SDS011;8435;52.184;5.406;2024-01-30T10:24:32;9.37;;;7.10;;
16642;SDS011;8435;52.184;5.406;2024-01-30T10:27:00;9.20;;;7.50;;
16642;SDS011;8435;52.184;5.406;2024-01-30T10:29:27;11.60;;;7.17;;
16642;SDS011;8435;52.184;5.406;2024-01-30T10:31:57;9.63;;;7.47;;
16642;SDS011;8435;52.184;5.406;2024-01-30T10:34:25;9.03;;;7.03;;
16642;SDS011;8435;52.184;5.406;2024-01-30T10:36:55;7.00;;;6.20;;
16642;SDS011;8435;52.184;5.406;2024-01-30T10:39:26;8.47;;;6.73;;
16642;SDS011;8435;52.184;5.406;2024-01-30T10:42:03;13.13;;;7.17;;
16642;SDS011;8435;52.184;5.406;2024-01-30T10:44:33;8.23;;;7.10;;
16642;SDS011;8435;52.184;5.406;2024-01-30T10:47:06;6.73;;;6.17;;
16642;SDS011;8435;52.184;5.406;2024-01-30T10:49:36;7.93;;;6.47;;
16642;SDS011;8435;52.184;5.406;2024-01-30T10:52:04;7.97;;;6.80;;
16642;SDS011;8435;52.184;5.406;2024-01-30T10:54:34;9.70;;;6.93;;
16642;SDS011;8435;52.184;5.406;2024-01-30T10:57:04;8.33;;;7.10;;
16642;SDS011;8435;52.184;5.406;2024-01-30T10:59:31;8.23;;;7.43;;
16642;SDS011;8435;52.184;5.406;2024-01-30T11:01:58;8.90;;;7.30;;
16642;SDS011;8435;52.184;5.406;2024-01-30T11:04:35;9.27;;;7.13;;
16642;SDS011;8435;52.184;5.406;2024-01-30T11:07:02;8.30;;;7.03;;
16642;SDS011;8435;52.184;5.406;2024-01-30T11:09:39;9.30;;;7.17;;
16642;SDS011;8435;52.184;5.406;2024-01-30T11:12:11;8.00;;;6.80;;
16642;SDS011;8435;52.184;5.406;2024-01-30T11:14:38;8.93;;;6.87;;
16642;SDS011;8435;52.184;5.406;2024-01-30T11:17:05;6.73;;;6.13;;
16642;SDS011;8435;52.184;5.406;2024-01-30T11:19:32;8.90;;;5.83;;
16642;SDS011;8435;52.184;5.406;2024-01-30T11:21:59;7.80;;;5.40;;
16642;SDS011;8435;52.184;5.406;2024-01-30T11:24:27;6.10;;;5.30;;
16642;SDS011;8435;52.184;5.406;2024-01-30T11:26:55;7.03;;;5.47;;
16642;SDS011;8435;52.184;5.406;2024-01-30T11:29:25;7.87;;;4.87;;
16642;SDS011;8435;52.184;5.406;2024-01-30T11:31:54;4.67;;;4.07;;
16642;SDS011;8435;52.184;5.406;2024-01-30T11:34:21;5.27;;;4.27;;
16642;SDS011;8435;52.184;5.406;2024-01-30T11:36:51;5.43;;;4.27;;
16642;SDS011;8435;52.184;5.406;2024-01-30T11:39:23;5.30;;;3.60;;
16642;SDS011;8435;52.184;5.406;2024-01-30T11:41:54;8.10;;;3.50;;
16642;SDS011;8435;52.184;5.406;2024-01-30T11:44:21;4.50;;;2.90;;
16642;SDS011;8435;52.184;5.406;2024-01-30T11:46:50;4.33;;;2.90;;
16642;SDS011;8435;52.184;5.406;2024-01-30T11:49:21;4.37;;;2.53;;
16642;SDS011;8435;52.184;5.406;2024-01-30T11:51:49;5.23;;;2.20;;
16642;SDS011;8435;52.184;5.406;2024-01-30T11:54:17;3.17;;;2.00;;
16642;SDS011;8435;52.184;5.406;2024-01-30T11:56:44;3.83;;;1.90;;
16642;SDS011;8435;52.184;5.406;2024-01-30T11:59:11;3.33;;;1.70;;
16642;SDS011;8435;52.184;5.406;2024-01-30T12:01:37;3.60;;;1.80;;
16642;SDS011;8435;52.184;5.406;2024-01-30T12:04:05;2.73;;;1.87;;
16642;SDS011;8435;52.184;5.406;2024-01-30T12:06:34;2.83;;;1.93;;
16642;SDS011;8435;52.184;5.406;2024-01-30T12:09:01;2.97;;;1.90;;
16642;SDS011;8435;52.184;5.406;2024-01-30T12:11:30;4.93;;;2.40;;
16642;SDS011;8435;52.184;5.406;2024-01-30T12:13:57;4.07;;;2.10;;
16642;SDS011;8435;52.184;5.406;2024-01-30T12:16:24;2.10;;;1.90;;
16642;SDS011;8435;52.184;5.406;2024-01-30T12:18:58;2.43;;;2.07;;
16642;SDS011;8435;52.184;5.406;2024-01-30T12:21:28;3.40;;;2.73;;
16642;SDS011;8435;52.184;5.406;2024-01-30T12:23:55;4.83;;;2.70;;
16642;SDS011;8435;52.184;5.406;2024-01-30T12:26:23;3.87;;;2.90;;
16642;SDS011;8435;52.184;5.406;2024-01-30T12:28:50;3.07;;;2.50;;
16642;SDS011;8435;52.184;5.406;2024-01-30T12:31:24;5.37;;;2.80;;
16642;SDS011;8435;52.184;5.406;2024-01-30T12:33:52;4.00;;;2.43;;
16642;SDS011;8435;52.184;5.406;2024-01-30T12:36:19;3.47;;;2.43;;
16642;SDS011;8435;52.184;5.406;2024-01-30T12:38:47;4.27;;;2.23;;
16642;SDS011;8435;52.184;5.406;2024-01-30T12:41:14;3.20;;;2.07;;
16642;SDS011;8435;52.184;5.406;2024-01-30T12:43:40;3.43;;;2.30;;
16642;SDS011;8435;52.184;5.406;2024-01-30T12:46:07;4.33;;;2.20;;
16642;SDS011;8435;52.184;5.406;2024-01-30T12:48:34;2.87;;;2.17;;
16642;SDS011;8435;52.184;5.406;2024-01-30T12:51:01;2.23;;;1.70;;
16642;SDS011;8435;52.184;5.406;2024-01-30T12:53:28;2.83;;;2.20;;
16642;SDS011;8435;52.184;5.406;2024-01-30T12:55:56;2.60;;;2.00;;
16642;SDS011;8435;52.184;5.406;2024-01-30T12:58:23;1.60;;;1.50;;
16642;SDS011;8435;52.184;5.406;2024-01-30T13:00:52;2.80;;;2.10;;
16642;SDS011;8435;52.184;5.406;2024-01-30T13:03:20;3.43;;;1.93;;
16642;SDS011;8435;52.184;5.406;2024-01-30T13:05:49;3.27;;;2.27;;
16642;SDS011;8435;52.184;5.406;2024-01-30T13:08:18;4.50;;;2.40;;
16642;SDS011;8435;52.184;5.406;2024-01-30T13:10:46;3.70;;;2.40;;
16642;SDS011;8435;52.184;5.406;2024-01-30T13:13:14;4.30;;;2.10;;
16642;SDS011;8435;52.184;5.406;2024-01-30T13:15:41;3.57;;;2.20;;
16642;SDS011;8435;52.184;5.406;2024-01-30T13:18:08;2.07;;;1.80;;
16642;SDS011;8435;52.184;5.406;2024-01-30T13:20:35;2.53;;;1.70;;
16642;SDS011;8435;52.184;5.406;2024-01-30T13:23:02;2.30;;;1.43;;
16642;SDS011;8435;52.184;5.406;2024-01-30T13:25:29;2.03;;;1.50;;
16642;SDS011;8435;52.184;5.406;2024-01-30T13:27:55;2.87;;;1.37;;
16642;SDS011;8435;52.184;5.406;2024-01-30T13:30:23;1.77;;;1.10;;
16642;SDS011;8435;52.184;5.406;2024-01-30T13:32:50;2.40;;;1.20;;
16642;SDS011;8435;52.184;5.406;2024-01-30T13:35:17;1.80;;;0.90;;
16642;SDS011;8435;52.184;5.406;2024-01-30T13:37:44;1.20;;;1.00;;
16642;SDS011;8435;52.184;5.406;2024-01-30T13:40:12;1.57;;;1.40;;
16642;SDS011;8435;52.184;5.406;2024-01-30T13:42:41;2.00;;;1.17;;
16642;SDS011;8435;52.184;5.406;2024-01-30T13:45:08;4.03;;;1.17;;
16642;SDS011;8435;52.184;5.406;2024-01-30T13:47:37;2.03;;;1.00;;
16642;SDS011;8435;52.184;5.406;2024-01-30T13:50:04;3.37;;;1.87;;
16642;SDS011;8435;52.184;5.406;2024-01-30T13:52:32;4.03;;;1.90;;
16642;SDS011;8435;52.184;5.406;2024-01-30T13:54:59;2.50;;;1.87;;
16642;SDS011;8435;52.184;5.406;2024-01-30T13:57:26;2.57;;;2.13;;
16642;SDS011;8435;52.184;5.406;2024-01-30T13:59:53;4.33;;;1.63;;
16642;SDS011;8435;52.184;5.406;2024-01-30T14:02:20;3.27;;;2.30;;
16642;SDS011;8435;52.184;5.406;2024-01-30T14:04:48;3.67;;;2.30;;
16642;SDS011;8435;52.184;5.406;2024-01-30T14:07:14;2.90;;;2.03;;
16642;SDS011;8435;52.184;5.406;2024-01-30T14:09:43;5.73;;;2.33;;
16642;SDS011;8435;52.184;5.406;2024-01-30T14:12:13;4.20;;;2.30;;
16642;SDS011;8435;52.184;5.406;2024-01-30T14:14:40;4.37;;;2.50;;
16642;SDS011;8435;52.184;5.406;2024-01-30T14:17:07;3.23;;;2.00;;
16642;SDS011;8435;52.184;5.406;2024-01-30T14:19:34;3.43;;;2.27;;
16642;SDS011;8435;52.184;5.406;2024-01-30T14:22:05;3.17;;;2.47;;
16642;SDS011;8435;52.184;5.406;2024-01-30T14:24:32;2.03;;;1.90;;
16642;SDS011;8435;52.184;5.406;2024-01-30T14:26:59;4.20;;;2.43;;
16642;SDS011;8435;52.184;5.406;2024-01-30T14:29:25;2.97;;;2.17;;
16642;SDS011;8435;52.184;5.406;2024-01-30T14:31:52;4.37;;;3.00;;
16642;SDS011;8435;52.184;5.406;2024-01-30T14:34:22;2.37;;;2.17;;
16642;SDS011;8435;52.184;5.406;2024-01-30T14:36:51;2.73;;;2.13;;
16642;SDS011;8435;52.184;5.406;2024-01-30T14:39:19;4.77;;;2.03;;
16642;SDS011;8435;52.184;5.406;2024-01-30T14:41:46;2.23;;;1.90;;
16642;SDS011;8435;52.184;5.406;2024-01-30T14:44:13;1.80;;;1.70;;
16642;SDS011;8435;52.184;5.406;2024-01-30T14:46:40;2.57;;;1.57;;
16642;SDS011;8435;52.184;5.406;2024-01-30T14:49:07;2.60;;;1.87;;
16642;SDS011;8435;52.184;5.406;2024-01-30T14:51:34;1.97;;;1.80;;
16642;SDS011;8435;52.184;5.406;2024-01-30T14:54:01;2.40;;;2.20;;
16642;SDS011;8435;52.184;5.406;2024-01-30T14:56:29;2.23;;;2.10;;
16642;SDS011;8435;52.184;5.406;2024-01-30T14:58:59;2.20;;;2.00;;